Pagina principale
METAR-TAF:

METAR-TAF

Aeroporti :

Pécs, Ungheria

latitudine: 46-06N, longitudine: 018-14E, altezza: 201 m

Osservazione

Il bollettino è stato emesso 41 minuti fa, alle 09:45 UTC
Vento 10 kt da ovest/nord-ovest
Temperature 6°C
Umidità 52%
Pressione 1017 hPa
Visibilità 10 km o più
nessuna nube inferiore a 1500 m e nessun cumulonembo

METAR: LHPP 160945Z 29010KT CAVOK 06/M03 Q1017

Ora: 11:26 (10:26 UTC)

Previsione

Il bollettino è stato emesso 2 ore e 11 minuti fa, alle 08:15 UTC
Previsione valida dal 16 alle 09 UTC al 16 alle 18 UTC
Vento 12 kt da ovest
Visibilità 10 km o più
nessuna nube inferiore a 1500 m e nessun cumulonembo
Evoluzione graduale
dal 16 alle 13 UTC al 16 alle 16 UTC
Vento 5 kt da sud-ovest

TAF: LHPP 160815Z 1609/1618 27012KT CAVOK BECMG 1613/1616 23005KT

Osservazioni e previsioni meteorologiche di più di 4000 aeroporti (messaggi METAR e TAF).

Le stazioni disponibili sono rappresentate dai dischi gialli e rossi sulla carta.

Puntare il mouse per vedere il nome della stazione.

Clicca sopra per visualizzare le osservazioni e previsioni meteorologiche.

Per cambiare la mappa : fare clic sui pulsanti verdi con una croce nera per ingrandire, il pulsante verde con un trattino per diminuire, o sulla freccia verde per le mappe adiacenti.


METAR-TAF: